CDT,Max TemperatureF,Mean TemperatureF,Min TemperatureF,Max Dew PointF,MeanDew PointF,Min DewpointF,Max Humidity, Mean Humidity, Min Humidity, Max Sea Level PressureIn, Mean Sea Level PressureIn, Min Sea Level PressureIn, Max VisibilityMiles, Mean VisibilityMiles, Min VisibilityMiles, Max Wind SpeedMPH, Mean Wind SpeedMPH, Max Gust SpeedMPH,PrecipitationIn, CloudCover, Events, WindDirDegrees
2014-4-1,45,34,23,24,19,13,82,57,36,30.07,30.01,29.94,10,10,10,16,10,21,0.00,3,,35
2014-4-2,42,34,27,33,27,21,88,71,58,29.97,29.86,29.77,10,10,5,16,11,20,0.00,6,,74
2014-4-3,38,35,33,35,33,27,95,89,76,30.01,29.82,29.74,10,6,1,23,13,28,0.20,8,Rain-Snow,2
2014-4-4,53,39,26,28,24,17,88,61,25,30.13,30.06,30.01,10,10,10,24,12,28,0.00,2,,309
2014-4-5,66,50,34,36,29,27,80,50,25,30.04,29.93,29.83,10,10,10,26,12,32,0.00,0,,178
2014-4-6,66,53,41,46,40,36,92,66,33,29.90,29.84,29.73,10,10,4,20,11,26,0.31,1,Rain-Thunderstorm,186
2014-4-7,55,44,34,43,39,32,95,81,54,30.09,29.96,29.85,10,10,4,29,12,36,0.14,3,Rain,332
2014-4-8,61,46,32,37,31,25,92,60,25,30.15,30.09,30.04,10,10,5,18,8,21,0.00,2,,318
2014-4-9,84,62,39,40,31,24,71,39,11,30.04,29.83,29.67,10,10,10,22,8,29,0.00,0,,236
2014-4-10,66,58,41,38,34,30,79,45,21,30.03,29.94,29.66,10,10,10,26,11,36,0.00,1,,51
2014-4-11,76,55,34,39,35,31,89,49,25,30.06,29.93,29.73,10,10,10,21,7,31,0.00,0,Rain,184
2014-4-12,77,66,55,52,42,32,82,49,21,29.72,29.64,29.59,10,10,10,22,13,26,0.00,0,,19
2014-4-13,57,44,30,36,31,24,95,76,38,30.10,29.84,29.64,10,7,0,39,23,46,0.53,7,Rain-Snow-Thunderstorm,7
2014-4-14,45,34,25,24,21,18,76,59,40,30.26,30.19,30.10,10,10,5,26,17,36,0.00,3,,328
2014-4-15,66,44,23,38,27,18,88,56,26,30.18,29.93,29.66,10,10,10,23,7,30,0.00,0,,177
2014-4-16,54,44,33,41,32,24,80,57,42,30.18,29.80,29.58,10,10,10,29,18,40,0.00,2,,331
2014-4-17,53,42,30,34,29,25,83,67,44,30.31,30.23,30.16,10,10,10,14,9,17,0.00,4,,100
2014-4-18,72,54,37,44,40,32,89,61,34,30.17,30.05,29.92,10,10,7,29,14,37,0.00,0,,172
2014-4-19,70,59,49,51,48,44,87,66,48,29.99,29.95,29.90,10,10,7,24,12,29,0.00,1,Rain,83
2014-4-20,77,61,45,54,48,42,89,66,38,30.01,29.96,29.89,10,10,7,14,6,17,0.00,1,Rain-Thunderstorm,200
2014-4-21,71,59,47,55,36,25,93,46,18,30.20,30.12,29.96,10,10,7,24,9,30,0.01,1,Rain-Thunderstorm,21
2014-4-22,75,56,37,36,33,30,78,43,23,30.18,30.00,29.79,10,10,10,32,10,38,0.00,0,,156
2014-4-23,81,68,54,50,40,29,63,40,19,29.78,29.61,29.47,10,10,10,31,18,38,0.00,0,Rain-Thunderstorm,151
2014-4-24,71,56,41,46,28,16,67,37,12,29.85,29.81,29.68,10,10,7,26,15,37,0.00,0,Rain,319
2014-4-25,77,56,34,38,29,24,72,38,15,29.85,29.80,29.73,10,10,10,17,4,25,0.00,0,,222
2014-4-26,84,66,49,59,47,39,76,52,24,29.71,29.48,29.28,10,10,10,25,12,34,0.00,0,,132
2014-4-27,74,59,43,60,48,28,93,62,21,29.29,29.22,29.13,10,9,2,33,20,41,0.28,1,Rain-Thunderstorm,158
2014-4-28,43,38,34,40,37,33,95,89,78,29.65,29.42,29.28,10,8,2,40,28,51,0.62,7,Rain,312
2014-4-29,41,38,35,35,33,32,90,81,70,30.06,29.84,29.65,10,10,7,37,27,46,0.00,6,Rain,333
2014-4-30,49,42,36,33,31,29,84,67,47,30.11,30.08,30.06,10,10,10,33,21,43,0.00,1,,325